Terminal Aerodrome Forecast
Issued by NWS Pittsburgh, PA

Current Version | Previous Version | Graphics & Text | Print | Product List | Glossary On
Versions: 1 2 3 4 5 6 7 8 9 10 11 12 13 14 15 16 17 18 19 20 21 22 23 24 25 26 27 28 29 30 31 32 33 34 35
000
FTUS41 KPBZ 301400 AAA
TAFPIT
TAF AMD
KPIT 301459Z 3015/3118 31012G24KT P6SM -SHSN BKN025
      TEMPO 3015/3018 2SM -SHSN BKN012
     FM302100 30008KT P6SM BKN020
     FM310600 28005KT P6SM SCT015=

USA.gov is the U.S. government's official web portal to all federal, state and local government web resources and services.